sensor_id;sensor_type;location;lat;lon;timestamp;temperature;humidity
68235;DHT22;55052;52.056;5.296;2024-03-08T00:01:08;5.00;95.60
68235;DHT22;55052;52.056;5.296;2024-03-08T00:03:34;5.00;95.60
68235;DHT22;55052;52.056;5.296;2024-03-08T00:06:02;4.90;95.60
68235;DHT22;55052;52.056;5.296;2024-03-08T00:08:29;4.90;95.60
68235;DHT22;55052;52.056;5.296;2024-03-08T00:10:57;4.90;95.60
68235;DHT22;55052;52.056;5.296;2024-03-08T00:13:24;4.90;95.50
68235;DHT22;55052;52.056;5.296;2024-03-08T00:15:51;4.90;95.60
68235;DHT22;55052;52.056;5.296;2024-03-08T00:18:18;4.80;95.50
68235;DHT22;55052;52.056;5.296;2024-03-08T00:20:45;4.80;95.50
68235;DHT22;55052;52.056;5.296;2024-03-08T00:23:12;4.80;95.50
68235;DHT22;55052;52.056;5.296;2024-03-08T00:25:39;4.80;95.50
68235;DHT22;55052;52.056;5.296;2024-03-08T00:28:06;4.80;95.50
68235;DHT22;55052;52.056;5.296;2024-03-08T00:30:33;4.80;95.50
68235;DHT22;55052;52.056;5.296;2024-03-08T00:32:59;4.70;95.40
68235;DHT22;55052;52.056;5.296;2024-03-08T00:35:26;4.70;95.40
68235;DHT22;55052;52.056;5.296;2024-03-08T00:37:53;4.70;95.50
68235;DHT22;55052;52.056;5.296;2024-03-08T00:40:23;4.70;95.40
68235;DHT22;55052;52.056;5.296;2024-03-08T00:42:50;4.60;95.50
68235;DHT22;55052;52.056;5.296;2024-03-08T00:45:16;4.60;95.40
68235;DHT22;55052;52.056;5.296;2024-03-08T00:47:43;4.60;95.40
68235;DHT22;55052;52.056;5.296;2024-03-08T00:50:12;4.60;95.40
68235;DHT22;55052;52.056;5.296;2024-03-08T00:52:39;4.50;95.40
68235;DHT22;55052;52.056;5.296;2024-03-08T00:55:06;4.50;95.40
68235;DHT22;55052;52.056;5.296;2024-03-08T00:57:37;4.50;95.40
68235;DHT22;55052;52.056;5.296;2024-03-08T01:00:06;4.50;95.30
68235;DHT22;55052;52.056;5.296;2024-03-08T01:02:39;4.50;95.40
68235;DHT22;55052;52.056;5.296;2024-03-08T01:05:06;4.40;95.40
68235;DHT22;55052;52.056;5.296;2024-03-08T01:07:34;4.40;95.30
68235;DHT22;55052;52.056;5.296;2024-03-08T01:10:05;4.40;95.40
68235;DHT22;55052;52.056;5.296;2024-03-08T01:12:38;4.30;95.30
68235;DHT22;55052;52.056;5.296;2024-03-08T01:15:06;4.30;95.30
68235;DHT22;55052;52.056;5.296;2024-03-08T01:17:34;4.30;95.40
68235;DHT22;55052;52.056;5.296;2024-03-08T01:20:01;4.30;95.40
68235;DHT22;55052;52.056;5.296;2024-03-08T01:22:27;4.20;95.40
68235;DHT22;55052;52.056;5.296;2024-03-08T01:24:57;4.20;95.40
68235;DHT22;55052;52.056;5.296;2024-03-08T01:27:24;4.20;95.40
68235;DHT22;55052;52.056;5.296;2024-03-08T01:29:51;4.20;95.30
68235;DHT22;55052;52.056;5.296;2024-03-08T01:32:18;4.20;95.40
68235;DHT22;55052;52.056;5.296;2024-03-08T01:34:46;4.10;95.40
68235;DHT22;55052;52.056;5.296;2024-03-08T01:37:13;4.10;95.40
68235;DHT22;55052;52.056;5.296;2024-03-08T01:39:41;4.10;95.40
68235;DHT22;55052;52.056;5.296;2024-03-08T01:42:08;4.10;95.40
68235;DHT22;55052;52.056;5.296;2024-03-08T01:44:35;4.00;95.40
68235;DHT22;55052;52.056;5.296;2024-03-08T01:47:02;4.00;95.40
68235;DHT22;55052;52.056;5.296;2024-03-08T01:49:29;4.00;95.40
68235;DHT22;55052;52.056;5.296;2024-03-08T01:51:56;4.00;95.50
68235;DHT22;55052;52.056;5.296;2024-03-08T01:54:23;3.90;95.50
68235;DHT22;55052;52.056;5.296;2024-03-08T01:56:51;3.90;95.50
68235;DHT22;55052;52.056;5.296;2024-03-08T01:59:20;3.90;95.50
68235;DHT22;55052;52.056;5.296;2024-03-08T02:01:46;3.90;95.50
68235;DHT22;55052;52.056;5.296;2024-03-08T02:04:14;3.80;95.50
68235;DHT22;55052;52.056;5.296;2024-03-08T02:06:41;3.80;95.60
68235;DHT22;55052;52.056;5.296;2024-03-08T02:09:08;3.80;95.60
68235;DHT22;55052;52.056;5.296;2024-03-08T02:11:35;3.80;95.60
68235;DHT22;55052;52.056;5.296;2024-03-08T02:14:03;3.80;95.60
68235;DHT22;55052;52.056;5.296;2024-03-08T02:16:32;3.70;95.60
68235;DHT22;55052;52.056;5.296;2024-03-08T02:19:00;3.70;95.70
68235;DHT22;55052;52.056;5.296;2024-03-08T02:21:26;3.70;95.70
68235;DHT22;55052;52.056;5.296;2024-03-08T02:23:53;3.70;95.70
68235;DHT22;55052;52.056;5.296;2024-03-08T02:26:20;3.70;95.70
68235;DHT22;55052;52.056;5.296;2024-03-08T02:28:47;3.60;95.70
68235;DHT22;55052;52.056;5.296;2024-03-08T02:31:15;3.60;95.70
68235;DHT22;55052;52.056;5.296;2024-03-08T02:33:43;3.60;95.70
68235;DHT22;55052;52.056;5.296;2024-03-08T02:36:10;3.60;95.70
68235;DHT22;55052;52.056;5.296;2024-03-08T02:38:37;3.50;95.70
68235;DHT22;55052;52.056;5.296;2024-03-08T02:41:04;3.50;95.70
68235;DHT22;55052;52.056;5.296;2024-03-08T02:43:31;3.50;95.70
68235;DHT22;55052;52.056;5.296;2024-03-08T02:45:58;3.50;96.10
68235;DHT22;55052;52.056;5.296;2024-03-08T02:48:26;3.50;95.80
68235;DHT22;55052;52.056;5.296;2024-03-08T02:50:53;3.50;95.80
68235;DHT22;55052;52.056;5.296;2024-03-08T02:53:20;3.40;95.80
68235;DHT22;55052;52.056;5.296;2024-03-08T02:55:47;3.40;95.70
68235;DHT22;55052;52.056;5.296;2024-03-08T02:58:14;3.40;95.70
68235;DHT22;55052;52.056;5.296;2024-03-08T03:00:41;3.40;95.70
68235;DHT22;55052;52.056;5.296;2024-03-08T03:03:09;3.40;95.80
68235;DHT22;55052;52.056;5.296;2024-03-08T03:05:36;3.30;95.80
68235;DHT22;55052;52.056;5.296;2024-03-08T03:08:03;3.30;95.70
68235;DHT22;55052;52.056;5.296;2024-03-08T03:10:36;3.30;95.80
68235;DHT22;55052;52.056;5.296;2024-03-08T03:13:04;3.30;95.80
68235;DHT22;55052;52.056;5.296;2024-03-08T03:15:35;3.20;95.70
68235;DHT22;55052;52.056;5.296;2024-03-08T03:18:03;3.20;95.70
68235;DHT22;55052;52.056;5.296;2024-03-08T03:20:30;3.20;95.80
68235;DHT22;55052;52.056;5.296;2024-03-08T03:23:03;3.20;95.70
68235;DHT22;55052;52.056;5.296;2024-03-08T03:25:30;3.20;95.70
68235;DHT22;55052;52.056;5.296;2024-03-08T03:28:02;3.10;95.70
68235;DHT22;55052;52.056;5.296;2024-03-08T03:30:29;3.20;95.80
68235;DHT22;55052;52.056;5.296;2024-03-08T03:33:03;3.10;95.70
68235;DHT22;55052;52.056;5.296;2024-03-08T03:35:34;3.10;95.70
68235;DHT22;55052;52.056;5.296;2024-03-08T03:38:03;3.10;95.80
68235;DHT22;55052;52.056;5.296;2024-03-08T03:40:39;3.10;95.80
68235;DHT22;55052;52.056;5.296;2024-03-08T03:43:07;3.20;95.80
68235;DHT22;55052;52.056;5.296;2024-03-08T03:45:37;3.00;95.80
68235;DHT22;55052;52.056;5.296;2024-03-08T03:48:05;3.00;95.70
68235;DHT22;55052;52.056;5.296;2024-03-08T03:50:39;3.00;95.70
68235;DHT22;55052;52.056;5.296;2024-03-08T03:53:07;3.00;95.70
68235;DHT22;55052;52.056;5.296;2024-03-08T03:55:35;2.90;95.70
68235;DHT22;55052;52.056;5.296;2024-03-08T03:58:03;3.00;95.70
68235;DHT22;55052;52.056;5.296;2024-03-08T04:00:30;2.90;95.70
68235;DHT22;55052;52.056;5.296;2024-03-08T04:02:57;2.90;95.70
68235;DHT22;55052;52.056;5.296;2024-03-08T04:05:27;2.90;95.70
68235;DHT22;55052;52.056;5.296;2024-03-08T04:07:54;2.90;95.70
68235;DHT22;55052;52.056;5.296;2024-03-08T04:10:21;2.90;95.70
68235;DHT22;55052;52.056;5.296;2024-03-08T04:12:48;2.90;95.70
68235;DHT22;55052;52.056;5.296;2024-03-08T04:15:15;2.80;95.70
68235;DHT22;55052;52.056;5.296;2024-03-08T04:17:42;2.80;95.70
68235;DHT22;55052;52.056;5.296;2024-03-08T04:20:09;2.80;95.70
68235;DHT22;55052;52.056;5.296;2024-03-08T04:22:38;2.70;95.70
68235;DHT22;55052;52.056;5.296;2024-03-08T04:25:06;2.80;95.80
68235;DHT22;55052;52.056;5.296;2024-03-08T04:27:33;2.80;95.70
68235;DHT22;55052;52.056;5.296;2024-03-08T04:30:02;2.80;95.70
68235;DHT22;55052;52.056;5.296;2024-03-08T04:32:29;2.80;95.70
68235;DHT22;55052;52.056;5.296;2024-03-08T04:34:56;2.80;95.70
68235;DHT22;55052;52.056;5.296;2024-03-08T04:37:23;2.90;95.70
68235;DHT22;55052;52.056;5.296;2024-03-08T04:39:51;2.70;95.70
68235;DHT22;55052;52.056;5.296;2024-03-08T04:42:18;2.70;95.60
68235;DHT22;55052;52.056;5.296;2024-03-08T04:44:45;2.70;95.60
68235;DHT22;55052;52.056;5.296;2024-03-08T04:47:12;2.70;95.60
68235;DHT22;55052;52.056;5.296;2024-03-08T04:49:39;2.70;95.60
68235;DHT22;55052;52.056;5.296;2024-03-08T04:52:06;2.70;95.60
68235;DHT22;55052;52.056;5.296;2024-03-08T04:54:33;2.70;95.60
68235;DHT22;55052;52.056;5.296;2024-03-08T04:57:01;2.70;95.60
68235;DHT22;55052;52.056;5.296;2024-03-08T04:59:32;2.70;95.60
68235;DHT22;55052;52.056;5.296;2024-03-08T05:01:59;2.60;95.60
68235;DHT22;55052;52.056;5.296;2024-03-08T05:04:26;2.70;95.60
68235;DHT22;55052;52.056;5.296;2024-03-08T05:06:53;2.60;95.50
68235;DHT22;55052;52.056;5.296;2024-03-08T05:09:20;2.60;95.50
68235;DHT22;55052;52.056;5.296;2024-03-08T05:11:47;2.60;95.50
68235;DHT22;55052;52.056;5.296;2024-03-08T05:14:14;2.60;95.50
68235;DHT22;55052;52.056;5.296;2024-03-08T05:16:47;2.60;95.50
68235;DHT22;55052;52.056;5.296;2024-03-08T05:19:17;2.60;95.50
68235;DHT22;55052;52.056;5.296;2024-03-08T05:21:45;2.50;95.50
68235;DHT22;55052;52.056;5.296;2024-03-08T05:24:12;2.50;95.40
68235;DHT22;55052;52.056;5.296;2024-03-08T05:26:40;2.50;95.50
68235;DHT22;55052;52.056;5.296;2024-03-08T05:29:07;2.50;95.50
68235;DHT22;55052;52.056;5.296;2024-03-08T05:31:49;2.60;95.50
68235;DHT22;55052;52.056;5.296;2024-03-08T05:34:17;2.50;95.50
68235;DHT22;55052;52.056;5.296;2024-03-08T05:36:44;2.50;95.50
68235;DHT22;55052;52.056;5.296;2024-03-08T05:39:16;2.50;95.50
68235;DHT22;55052;52.056;5.296;2024-03-08T05:41:44;2.50;95.50
68235;DHT22;55052;52.056;5.296;2024-03-08T05:44:13;2.50;95.50
68235;DHT22;55052;52.056;5.296;2024-03-08T05:46:40;2.50;95.50
68235;DHT22;55052;52.056;5.296;2024-03-08T05:49:07;2.50;95.50
68235;DHT22;55052;52.056;5.296;2024-03-08T05:51:38;2.40;95.40
68235;DHT22;55052;52.056;5.296;2024-03-08T05:54:07;2.40;95.40
68235;DHT22;55052;52.056;5.296;2024-03-08T05:56:40;2.40;95.40
68235;DHT22;55052;52.056;5.296;2024-03-08T05:59:12;2.50;95.40
68235;DHT22;55052;52.056;5.296;2024-03-08T06:01:39;2.40;95.40
68235;DHT22;55052;52.056;5.296;2024-03-08T06:04:09;2.40;95.40
68235;DHT22;55052;52.056;5.296;2024-03-08T06:06:38;2.40;95.50
68235;DHT22;55052;52.056;5.296;2024-03-08T06:09:06;2.40;95.50
68235;DHT22;55052;52.056;5.296;2024-03-08T06:11:39;2.30;95.50
68235;DHT22;55052;52.056;5.296;2024-03-08T06:14:06;2.40;95.50
68235;DHT22;55052;52.056;5.296;2024-03-08T06:16:33;2.40;95.50
68235;DHT22;55052;52.056;5.296;2024-03-08T06:19:00;2.40;95.50
68235;DHT22;55052;52.056;5.296;2024-03-08T06:21:29;2.40;95.50
68235;DHT22;55052;52.056;5.296;2024-03-08T06:23:56;2.40;95.40
68235;DHT22;55052;52.056;5.296;2024-03-08T06:26:24;2.40;95.40
68235;DHT22;55052;52.056;5.296;2024-03-08T06:28:56;2.40;95.50
68235;DHT22;55052;52.056;5.296;2024-03-08T06:31:23;2.40;95.40
68235;DHT22;55052;52.056;5.296;2024-03-08T06:33:50;2.40;95.40
68235;DHT22;55052;52.056;5.296;2024-03-08T06:36:18;2.40;95.40
68235;DHT22;55052;52.056;5.296;2024-03-08T06:38:46;2.40;95.50
68235;DHT22;55052;52.056;5.296;2024-03-08T06:41:13;2.40;95.40
68235;DHT22;55052;52.056;5.296;2024-03-08T06:43:43;2.40;95.50
68235;DHT22;55052;52.056;5.296;2024-03-08T06:46:10;2.40;95.50
68235;DHT22;55052;52.056;5.296;2024-03-08T06:48:39;2.50;95.50
68235;DHT22;55052;52.056;5.296;2024-03-08T06:51:07;2.50;95.50
68235;DHT22;55052;52.056;5.296;2024-03-08T06:53:34;2.50;95.60
68235;DHT22;55052;52.056;5.296;2024-03-08T06:56:02;2.50;95.50
68235;DHT22;55052;52.056;5.296;2024-03-08T06:58:29;2.50;95.50
68235;DHT22;55052;52.056;5.296;2024-03-08T07:00:56;2.60;95.50
68235;DHT22;55052;52.056;5.296;2024-03-08T07:03:27;2.60;95.50
68235;DHT22;55052;52.056;5.296;2024-03-08T07:05:56;2.60;95.50
68235;DHT22;55052;52.056;5.296;2024-03-08T07:08:28;2.70;95.50
68235;DHT22;55052;52.056;5.296;2024-03-08T07:10:55;2.60;95.50
68235;DHT22;55052;52.056;5.296;2024-03-08T07:13:22;2.70;95.50
68235;DHT22;55052;52.056;5.296;2024-03-08T07:15:49;2.70;95.50
68235;DHT22;55052;52.056;5.296;2024-03-08T07:18:16;2.70;95.40
68235;DHT22;55052;52.056;5.296;2024-03-08T07:20:43;2.80;95.40
68235;DHT22;55052;52.056;5.296;2024-03-08T07:23:12;2.80;95.80
68235;DHT22;55052;52.056;5.296;2024-03-08T07:25:59;2.80;95.40
68235;DHT22;55052;52.056;5.296;2024-03-08T07:28:27;2.90;95.40
68235;DHT22;55052;52.056;5.296;2024-03-08T07:30:58;2.80;95.30
68235;DHT22;55052;52.056;5.296;2024-03-08T07:33:39;2.90;95.40
68235;DHT22;55052;52.056;5.296;2024-03-08T07:36:07;3.00;95.40
68235;DHT22;55052;52.056;5.296;2024-03-08T07:38:34;3.10;95.30
68235;DHT22;55052;52.056;5.296;2024-03-08T07:41:01;3.10;95.30
68235;DHT22;55052;52.056;5.296;2024-03-08T07:43:31;3.10;95.20
68235;DHT22;55052;52.056;5.296;2024-03-08T07:45:59;3.10;95.20
68235;DHT22;55052;52.056;5.296;2024-03-08T07:48:26;3.20;95.20
68235;DHT22;55052;52.056;5.296;2024-03-08T07:50:53;3.30;95.20
68235;DHT22;55052;52.056;5.296;2024-03-08T07:53:20;3.30;95.20
68235;DHT22;55052;52.056;5.296;2024-03-08T07:55:47;3.30;95.10
68235;DHT22;55052;52.056;5.296;2024-03-08T07:58:14;3.40;95.10
68235;DHT22;55052;52.056;5.296;2024-03-08T08:00:41;3.40;95.00
68235;DHT22;55052;52.056;5.296;2024-03-08T08:03:10;3.50;95.00
68235;DHT22;55052;52.056;5.296;2024-03-08T08:05:36;3.50;94.90
68235;DHT22;55052;52.056;5.296;2024-03-08T08:08:07;3.60;94.90
68235;DHT22;55052;52.056;5.296;2024-03-08T08:10:34;3.60;94.90
68235;DHT22;55052;52.056;5.296;2024-03-08T08:13:01;3.70;94.80
68235;DHT22;55052;52.056;5.296;2024-03-08T08:15:29;3.80;94.80
68235;DHT22;55052;52.056;5.296;2024-03-08T08:17:56;3.80;94.70
68235;DHT22;55052;52.056;5.296;2024-03-08T08:20:23;3.90;94.70
68235;DHT22;55052;52.056;5.296;2024-03-08T08:22:50;3.90;94.60
68235;DHT22;55052;52.056;5.296;2024-03-08T08:25:17;4.00;94.60
68235;DHT22;55052;52.056;5.296;2024-03-08T08:27:47;4.00;94.50
68235;DHT22;55052;52.056;5.296;2024-03-08T08:30:14;4.10;94.50
68235;DHT22;55052;52.056;5.296;2024-03-08T08:32:41;4.20;94.40
68235;DHT22;55052;52.056;5.296;2024-03-08T08:35:11;4.20;94.40
68235;DHT22;55052;52.056;5.296;2024-03-08T08:37:39;4.30;94.30
68235;DHT22;55052;52.056;5.296;2024-03-08T08:40:07;4.30;94.20
68235;DHT22;55052;52.056;5.296;2024-03-08T08:42:41;4.40;94.20
68235;DHT22;55052;52.056;5.296;2024-03-08T08:45:09;4.50;94.20
68235;DHT22;55052;52.056;5.296;2024-03-08T08:47:44;4.60;94.40
68235;DHT22;55052;52.056;5.296;2024-03-08T08:50:12;4.60;93.90
68235;DHT22;55052;52.056;5.296;2024-03-08T08:52:40;4.70;93.80
68235;DHT22;55052;52.056;5.296;2024-03-08T08:55:07;4.70;93.70
68235;DHT22;55052;52.056;5.296;2024-03-08T08:57:34;4.80;93.60
68235;DHT22;55052;52.056;5.296;2024-03-08T09:00:03;4.80;93.50
68235;DHT22;55052;52.056;5.296;2024-03-08T09:02:34;4.90;93.30
68235;DHT22;55052;52.056;5.296;2024-03-08T09:05:01;5.00;93.30
68235;DHT22;55052;52.056;5.296;2024-03-08T09:07:29;5.10;93.30
68235;DHT22;55052;52.056;5.296;2024-03-08T09:09:56;5.10;93.20
68235;DHT22;55052;52.056;5.296;2024-03-08T09:12:25;5.20;93.20
68235;DHT22;55052;52.056;5.296;2024-03-08T09:14:52;5.30;93.10
68235;DHT22;55052;52.056;5.296;2024-03-08T09:17:19;5.40;93.10
68235;DHT22;55052;52.056;5.296;2024-03-08T09:19:49;5.40;92.90
68235;DHT22;55052;52.056;5.296;2024-03-08T09:22:17;5.50;92.80
68235;DHT22;55052;52.056;5.296;2024-03-08T09:24:45;5.60;92.80
68235;DHT22;55052;52.056;5.296;2024-03-08T09:27:12;5.70;92.80
68235;DHT22;55052;52.056;5.296;2024-03-08T09:29:40;5.80;92.70
68235;DHT22;55052;52.056;5.296;2024-03-08T09:32:07;5.80;92.60
68235;DHT22;55052;52.056;5.296;2024-03-08T09:34:34;5.90;92.40
68235;DHT22;55052;52.056;5.296;2024-03-08T09:37:04;6.00;92.30
68235;DHT22;55052;52.056;5.296;2024-03-08T09:39:31;6.10;92.30
68235;DHT22;55052;52.056;5.296;2024-03-08T09:42:01;6.10;92.30
68235;DHT22;55052;52.056;5.296;2024-03-08T09:44:28;6.20;92.10
68235;DHT22;55052;52.056;5.296;2024-03-08T09:46:55;6.30;92.00
68235;DHT22;55052;52.056;5.296;2024-03-08T09:49:25;6.40;91.90
68235;DHT22;55052;52.056;5.296;2024-03-08T09:51:52;6.50;91.80
68235;DHT22;55052;52.056;5.296;2024-03-08T09:54:20;6.60;91.60
68235;DHT22;55052;52.056;5.296;2024-03-08T09:56:51;6.60;91.50
68235;DHT22;55052;52.056;5.296;2024-03-08T09:59:19;6.70;91.40
68235;DHT22;55052;52.056;5.296;2024-03-08T10:01:55;6.80;91.30
68235;DHT22;55052;52.056;5.296;2024-03-08T10:04:23;6.90;91.10
68235;DHT22;55052;52.056;5.296;2024-03-08T10:06:50;6.90;91.00
68235;DHT22;55052;52.056;5.296;2024-03-08T10:09:16;7.00;90.90
68235;DHT22;55052;52.056;5.296;2024-03-08T10:11:44;7.10;90.70
68235;DHT22;55052;52.056;5.296;2024-03-08T10:14:11;7.20;90.70
68235;DHT22;55052;52.056;5.296;2024-03-08T10:16:39;7.20;90.50
68235;DHT22;55052;52.056;5.296;2024-03-08T10:19:06;7.30;90.50
68235;DHT22;55052;52.056;5.296;2024-03-08T10:21:34;7.40;90.40
68235;DHT22;55052;52.056;5.296;2024-03-08T10:24:02;7.50;90.20
68235;DHT22;55052;52.056;5.296;2024-03-08T10:26:30;7.60;89.90
68235;DHT22;55052;52.056;5.296;2024-03-08T10:28:57;7.70;89.70
68235;DHT22;55052;52.056;5.296;2024-03-08T10:31:25;7.70;89.50
68235;DHT22;55052;52.056;5.296;2024-03-08T10:33:52;7.80;89.00
68235;DHT22;55052;52.056;5.296;2024-03-08T10:36:19;7.90;88.60
68235;DHT22;55052;52.056;5.296;2024-03-08T10:38:46;8.00;88.30
68235;DHT22;55052;52.056;5.296;2024-03-08T10:41:16;8.10;88.00
68235;DHT22;55052;52.056;5.296;2024-03-08T10:44:16;8.10;87.70
68235;DHT22;55052;52.056;5.296;2024-03-08T10:52:31;8.40;86.30
68235;DHT22;55052;52.056;5.296;2024-03-08T10:54:59;8.40;85.90
68235;DHT22;55052;52.056;5.296;2024-03-08T10:57:27;8.50;85.50
68235;DHT22;55052;52.056;5.296;2024-03-08T10:59:55;8.50;85.20
68235;DHT22;55052;52.056;5.296;2024-03-08T11:02:25;8.60;84.80
68235;DHT22;55052;52.056;5.296;2024-03-08T11:04:54;8.60;84.50
68235;DHT22;55052;52.056;5.296;2024-03-08T11:07:25;8.70;84.50
68235;DHT22;55052;52.056;5.296;2024-03-08T11:09:55;8.70;84.20
68235;DHT22;55052;52.056;5.296;2024-03-08T11:12:25;8.80;83.70
68235;DHT22;55052;52.056;5.296;2024-03-08T11:14:58;8.90;83.70
68235;DHT22;55052;52.056;5.296;2024-03-08T11:19:59;9.00;83.00
68235;DHT22;55052;52.056;5.296;2024-03-08T11:22:29;9.00;82.60
68235;DHT22;55052;52.056;5.296;2024-03-08T11:25:03;9.10;82.40
68235;DHT22;55052;52.056;5.296;2024-03-08T11:27:35;9.20;82.10
68235;DHT22;55052;52.056;5.296;2024-03-08T11:30:07;9.20;81.90
68235;DHT22;55052;52.056;5.296;2024-03-08T11:32:45;9.30;81.40
68235;DHT22;55052;52.056;5.296;2024-03-08T11:35:22;9.40;81.10
68235;DHT22;55052;52.056;5.296;2024-03-08T11:37:51;9.50;80.60
68235;DHT22;55052;52.056;5.296;2024-03-08T11:40:19;9.50;80.50
68235;DHT22;55052;52.056;5.296;2024-03-08T11:42:49;9.60;80.10
68235;DHT22;55052;52.056;5.296;2024-03-08T11:45:18;9.70;79.40
68235;DHT22;55052;52.056;5.296;2024-03-08T11:47:48;9.70;79.20
68235;DHT22;55052;52.056;5.296;2024-03-08T11:50:17;9.80;79.00
68235;DHT22;55052;52.056;5.296;2024-03-08T11:52:46;9.80;78.50
68235;DHT22;55052;52.056;5.296;2024-03-08T11:55:13;9.90;78.10
68235;DHT22;55052;52.056;5.296;2024-03-08T11:57:40;10.00;77.50
68235;DHT22;55052;52.056;5.296;2024-03-08T12:00:17;10.00;76.80
68235;DHT22;55052;52.056;5.296;2024-03-08T12:03:04;10.10;76.30
68235;DHT22;55052;52.056;5.296;2024-03-08T12:05:32;10.10;76.00
68235;DHT22;55052;52.056;5.296;2024-03-08T12:08:03;10.20;76.10
68235;DHT22;55052;52.056;5.296;2024-03-08T12:10:34;10.20;76.00
68235;DHT22;55052;52.056;5.296;2024-03-08T12:13:02;10.30;75.80
68235;DHT22;55052;52.056;5.296;2024-03-08T12:15:39;10.30;75.60
68235;DHT22;55052;52.056;5.296;2024-03-08T12:18:06;10.30;75.40
68235;DHT22;55052;52.056;5.296;2024-03-08T12:20:34;10.40;74.90
68235;DHT22;55052;52.056;5.296;2024-03-08T12:23:00;10.40;74.60
68235;DHT22;55052;52.056;5.296;2024-03-08T12:25:32;10.50;74.70
68235;DHT22;55052;52.056;5.296;2024-03-08T12:28:12;10.60;74.20
68235;DHT22;55052;52.056;5.296;2024-03-08T12:31:00;10.60;74.20
68235;DHT22;55052;52.056;5.296;2024-03-08T12:33:27;10.70;74.20
68235;DHT22;55052;52.056;5.296;2024-03-08T12:35:55;10.70;74.20
68235;DHT22;55052;52.056;5.296;2024-03-08T12:38:28;10.80;74.10
68235;DHT22;55052;52.056;5.296;2024-03-08T12:40:55;10.80;73.90
68235;DHT22;55052;52.056;5.296;2024-03-08T12:43:24;10.80;73.60
68235;DHT22;55052;52.056;5.296;2024-03-08T12:45:51;10.90;73.30
68235;DHT22;55052;52.056;5.296;2024-03-08T12:48:19;10.90;73.30
68235;DHT22;55052;52.056;5.296;2024-03-08T12:50:47;11.00;72.80
68235;DHT22;55052;52.056;5.296;2024-03-08T12:53:14;11.00;72.70
68235;DHT22;55052;52.056;5.296;2024-03-08T12:55:42;11.00;72.50
68235;DHT22;55052;52.056;5.296;2024-03-08T12:58:09;11.10;72.50
68235;DHT22;55052;52.056;5.296;2024-03-08T13:00:36;11.10;72.40
68235;DHT22;55052;52.056;5.296;2024-03-08T13:03:03;11.20;72.30
68235;DHT22;55052;52.056;5.296;2024-03-08T13:05:30;11.20;72.00
68235;DHT22;55052;52.056;5.296;2024-03-08T13:07:57;11.20;71.40
68235;DHT22;55052;52.056;5.296;2024-03-08T13:10:24;11.20;71.20
68235;DHT22;55052;52.056;5.296;2024-03-08T13:12:51;11.20;71.10
68235;DHT22;55052;52.056;5.296;2024-03-08T13:15:20;11.30;71.10
68235;DHT22;55052;52.056;5.296;2024-03-08T13:17:48;11.30;71.70
68235;DHT22;55052;52.056;5.296;2024-03-08T13:20:15;11.30;70.20
68235;DHT22;55052;52.056;5.296;2024-03-08T13:22:56;11.30;69.80
68235;DHT22;55052;52.056;5.296;2024-03-08T13:25:23;11.30;70.10
68235;DHT22;55052;52.056;5.296;2024-03-08T13:27:51;11.20;70.20
68235;DHT22;55052;52.056;5.296;2024-03-08T13:30:20;11.30;70.40
68235;DHT22;55052;52.056;5.296;2024-03-08T13:32:52;11.40;70.50
68235;DHT22;55052;52.056;5.296;2024-03-08T13:35:19;11.40;70.20
68235;DHT22;55052;52.056;5.296;2024-03-08T13:37:51;11.40;70.20
68235;DHT22;55052;52.056;5.296;2024-03-08T13:40:18;11.40;70.00
68235;DHT22;55052;52.056;5.296;2024-03-08T13:42:47;11.40;69.80
68235;DHT22;55052;52.056;5.296;2024-03-08T13:45:16;11.40;69.60
68235;DHT22;55052;52.056;5.296;2024-03-08T13:47:53;11.40;69.40
68235;DHT22;55052;52.056;5.296;2024-03-08T13:50:21;11.50;69.50
68235;DHT22;55052;52.056;5.296;2024-03-08T13:52:49;11.40;69.40
68235;DHT22;55052;52.056;5.296;2024-03-08T13:55:21;11.40;69.20
68235;DHT22;55052;52.056;5.296;2024-03-08T13:57:52;11.40;69.00
68235;DHT22;55052;52.056;5.296;2024-03-08T14:00:19;11.40;69.00
68235;DHT22;55052;52.056;5.296;2024-03-08T14:02:49;11.50;68.60
68235;DHT22;55052;52.056;5.296;2024-03-08T14:05:16;11.50;68.50
68235;DHT22;55052;52.056;5.296;2024-03-08T14:07:46;11.50;68.50
68235;DHT22;55052;52.056;5.296;2024-03-08T14:10:16;11.50;68.50
68235;DHT22;55052;52.056;5.296;2024-03-08T14:12:47;11.50;68.60
68235;DHT22;55052;52.056;5.296;2024-03-08T14:15:15;11.50;68.60
68235;DHT22;55052;52.056;5.296;2024-03-08T14:17:43;11.50;68.50
68235;DHT22;55052;52.056;5.296;2024-03-08T14:20:14;11.50;69.50
68235;DHT22;55052;52.056;5.296;2024-03-08T14:22:41;11.60;68.90
68235;DHT22;55052;52.056;5.296;2024-03-08T14:25:08;11.70;69.00
68235;DHT22;55052;52.056;5.296;2024-03-08T14:27:44;11.80;69.90
68235;DHT22;55052;52.056;5.296;2024-03-08T14:30:12;11.90;68.70
68235;DHT22;55052;52.056;5.296;2024-03-08T14:32:40;12.00;68.80
68235;DHT22;55052;52.056;5.296;2024-03-08T14:35:08;12.10;68.90
68235;DHT22;55052;52.056;5.296;2024-03-08T14:37:38;12.20;68.80
68235;DHT22;55052;52.056;5.296;2024-03-08T14:40:05;12.30;68.50
68235;DHT22;55052;52.056;5.296;2024-03-08T14:42:32;12.50;68.60
68235;DHT22;55052;52.056;5.296;2024-03-08T14:44:59;12.60;68.80
68235;DHT22;55052;52.056;5.296;2024-03-08T14:47:26;12.70;68.40
68235;DHT22;55052;52.056;5.296;2024-03-08T14:49:55;12.90;68.20
68235;DHT22;55052;52.056;5.296;2024-03-08T14:52:22;13.10;68.30
68235;DHT22;55052;52.056;5.296;2024-03-08T14:54:55;13.30;68.40
68235;DHT22;55052;52.056;5.296;2024-03-08T14:57:25;13.60;68.90
68235;DHT22;55052;52.056;5.296;2024-03-08T14:59:52;13.90;68.50
68235;DHT22;55052;52.056;5.296;2024-03-08T15:02:18;14.20;67.80
68235;DHT22;55052;52.056;5.296;2024-03-08T15:04:47;14.40;67.30
68235;DHT22;55052;52.056;5.296;2024-03-08T15:07:24;14.60;66.40
68235;DHT22;55052;52.056;5.296;2024-03-08T15:09:56;14.70;65.20
68235;DHT22;55052;52.056;5.296;2024-03-08T15:12:23;14.70;64.30
68235;DHT22;55052;52.056;5.296;2024-03-08T15:14:53;14.70;63.50
68235;DHT22;55052;52.056;5.296;2024-03-08T15:17:22;14.70;63.40
68235;DHT22;55052;52.056;5.296;2024-03-08T15:19:50;14.70;64.00
68235;DHT22;55052;52.056;5.296;2024-03-08T15:22:18;14.70;63.50
68235;DHT22;55052;52.056;5.296;2024-03-08T15:24:45;14.70;63.20
68235;DHT22;55052;52.056;5.296;2024-03-08T15:27:12;14.60;62.70
68235;DHT22;55052;52.056;5.296;2024-03-08T15:29:39;14.50;62.00
68235;DHT22;55052;52.056;5.296;2024-03-08T15:32:06;14.30;62.00
68235;DHT22;55052;52.056;5.296;2024-03-08T15:34:36;14.20;61.80
68235;DHT22;55052;52.056;5.296;2024-03-08T15:37:05;14.00;61.50
68235;DHT22;55052;52.056;5.296;2024-03-08T15:39:33;13.90;62.20
68235;DHT22;55052;52.056;5.296;2024-03-08T15:42:01;13.80;61.70
68235;DHT22;55052;52.056;5.296;2024-03-08T15:44:28;13.70;61.50
68235;DHT22;55052;52.056;5.296;2024-03-08T15:46:55;13.50;61.60
68235;DHT22;55052;52.056;5.296;2024-03-08T15:49:22;13.40;61.90
68235;DHT22;55052;52.056;5.296;2024-03-08T15:51:51;13.30;62.20
68235;DHT22;55052;52.056;5.296;2024-03-08T15:54:18;13.30;62.20
68235;DHT22;55052;52.056;5.296;2024-03-08T15:56:45;13.20;62.40
68235;DHT22;55052;52.056;5.296;2024-03-08T15:59:12;13.20;62.50